createdAt,value
2022-12-17T00:04:14.781Z,26.48
2022-12-17T00:09:21.921Z,26.26
2022-12-17T00:14:29.131Z,26.37
2022-12-17T00:19:36.346Z,26.44
2022-12-17T00:24:43.682Z,26.75
2022-12-17T00:29:50.774Z,26.64
2022-12-17T00:34:57.926Z,26.72
2022-12-17T00:40:05.144Z,26.81
2022-12-17T00:45:12.369Z,26.90
2022-12-17T00:50:19.596Z,27.04
2022-12-17T00:55:26.810Z,27.18
2022-12-17T01:00:34.083Z,27.29
2022-12-17T01:05:41.268Z,27.39
2022-12-17T01:10:48.478Z,27.49
2022-12-17T01:15:56.647Z,27.66
2022-12-17T01:21:02.860Z,27.70
2022-12-17T01:26:10.110Z,27.76
2022-12-17T01:31:17.586Z,27.84
2022-12-17T01:36:24.654Z,27.89
2022-12-17T01:41:31.903Z,27.85
2022-12-17T01:46:39.078Z,27.93
2022-12-17T01:51:46.321Z,28.02
2022-12-17T01:56:53.632Z,27.46
2022-12-17T02:02:01.058Z,27.75
2022-12-17T02:07:08.078Z,28.01
2022-12-17T02:12:15.263Z,27.95
2022-12-17T02:17:22.431Z,27.78
2022-12-17T02:22:29.650Z,27.95
2022-12-17T02:27:36.862Z,28.18
2022-12-17T02:32:44.324Z,28.21
2022-12-17T02:37:51.562Z,28.15
2022-12-17T02:42:58.875Z,28.15
2022-12-17T02:48:05.910Z,28.45
2022-12-17T02:53:13.201Z,28.19
2022-12-17T02:58:20.400Z,28.04
2022-12-17T03:03:27.741Z,28.29
2022-12-17T03:08:34.765Z,28.35
2022-12-17T03:13:42.017Z,28.42
2022-12-17T03:18:49.177Z,28.41
2022-12-17T03:23:56.461Z,28.50
2022-12-17T03:29:03.657Z,28.48
2022-12-17T03:34:10.783Z,28.58
2022-12-17T03:39:17.981Z,28.56
2022-12-17T03:44:25.235Z,28.96
2022-12-17T03:49:32.394Z,28.72
2022-12-17T03:54:39.603Z,28.75
2022-12-17T03:59:46.835Z,28.93
2022-12-17T04:04:54.019Z,28.85
2022-12-17T04:10:01.240Z,28.92
2022-12-17T04:15:08.441Z,29.00
2022-12-17T04:20:15.624Z,29.05
2022-12-17T04:25:22.833Z,29.15
2022-12-17T04:30:30.057Z,29.18
2022-12-17T04:35:37.241Z,29.22
2022-12-17T04:40:44.426Z,29.33
2022-12-17T04:45:51.769Z,29.76
2022-12-17T04:50:58.862Z,29.66
2022-12-17T04:56:06.019Z,29.55
2022-12-17T05:01:13.445Z,29.66
2022-12-17T05:06:20.471Z,29.55
2022-12-17T05:11:27.694Z,29.74
2022-12-17T05:16:34.876Z,29.10
2022-12-17T05:21:42.098Z,29.30
2022-12-17T05:26:49.298Z,29.12
2022-12-17T05:31:56.567Z,29.20
2022-12-17T05:37:03.724Z,29.39
2022-12-17T05:42:10.912Z,29.14
2022-12-17T05:47:18.144Z,29.24
2022-12-17T05:52:25.325Z,29.44
2022-12-17T05:57:32.510Z,29.27
2022-12-17T06:02:39.886Z,29.25
2022-12-17T06:07:46.919Z,29.35
2022-12-17T06:12:54.137Z,29.86
2022-12-17T06:18:01.380Z,29.96
2022-12-17T06:23:08.546Z,30.03
2022-12-17T06:28:15.767Z,30.06
2022-12-17T06:33:22.980Z,30.14
2022-12-17T06:38:30.178Z,30.08
2022-12-17T06:43:37.658Z,29.59
2022-12-17T06:48:44.596Z,29.28
2022-12-17T06:53:51.758Z,29.13
2022-12-17T06:58:58.965Z,28.95
2022-12-17T07:04:06.213Z,28.70
2022-12-17T07:09:13.383Z,28.57
2022-12-17T07:14:20.580Z,28.36
2022-12-17T07:19:27.931Z,28.24
2022-12-17T07:24:34.971Z,28.00
2022-12-17T07:29:42.202Z,27.84
2022-12-17T07:34:49.378Z,27.58
2022-12-17T07:39:56.597Z,27.46
2022-12-17T07:45:03.805Z,27.28
2022-12-17T07:50:11.055Z,27.16
2022-12-17T07:55:18.559Z,27.06
2022-12-17T08:00:25.507Z,26.95
2022-12-17T08:05:32.650Z,26.80
2022-12-17T08:10:39.861Z,26.67
2022-12-17T08:15:47.056Z,26.56
2022-12-17T08:20:54.259Z,26.46
2022-12-17T08:26:01.450Z,26.38
2022-12-17T08:31:08.732Z,26.14
2022-12-17T08:36:15.845Z,25.95
2022-12-17T08:41:23.061Z,25.81
2022-12-17T08:46:30.309Z,25.73
2022-12-17T08:51:37.528Z,25.53
2022-12-17T08:56:44.658Z,25.47
2022-12-17T09:01:52.011Z,25.29
2022-12-17T09:06:59.077Z,25.26
2022-12-17T09:12:06.234Z,25.13
2022-12-17T09:17:13.488Z,25.02
2022-12-17T09:22:20.749Z,24.94
2022-12-17T09:27:28.009Z,24.82
2022-12-17T09:32:35.195Z,24.77
2022-12-17T09:37:42.463Z,24.69
2022-12-17T09:42:52.495Z,24.58
2022-12-17T09:47:56.852Z,24.51
2022-12-17T09:53:04.063Z,24.41
2022-12-17T09:58:11.260Z,24.38
2022-12-17T10:03:18.513Z,24.27
2022-12-17T10:08:25.735Z,24.20
2022-12-17T10:13:33.042Z,24.14
2022-12-17T10:18:40.116Z,24.11
2022-12-17T10:23:47.323Z,24.05
2022-12-17T10:28:54.537Z,25.73
2022-12-17T10:34:01.768Z,24.16
2022-12-17T10:39:09.012Z,24.07
2022-12-17T10:44:16.234Z,23.90
2022-12-17T10:49:23.386Z,23.86
2022-12-17T10:54:30.567Z,23.85
2022-12-17T10:59:37.697Z,23.81
2022-12-17T11:04:44.872Z,24.09
2022-12-17T11:09:52.124Z,23.98
2022-12-17T11:14:59.311Z,24.41
2022-12-17T11:20:06.534Z,24.45
2022-12-17T11:25:13.756Z,24.54
2022-12-17T11:30:23.159Z,25.68
2022-12-17T11:35:28.125Z,26.60
2022-12-17T11:40:35.496Z,27.61
2022-12-17T11:45:42.530Z,27.28
2022-12-17T11:50:49.737Z,25.84
2022-12-17T11:55:56.950Z,25.62
2022-12-17T12:01:04.118Z,25.59
2022-12-17T12:06:11.318Z,25.57
2022-12-17T12:11:18.608Z,25.72
2022-12-17T12:16:25.977Z,26.02
2022-12-17T12:21:33.069Z,26.63
2022-12-17T12:26:40.295Z,26.70
2022-12-17T12:31:47.618Z,25.71
2022-12-17T12:36:54.739Z,25.68
2022-12-17T12:42:01.922Z,25.79
2022-12-17T12:47:09.116Z,26.02
2022-12-17T12:52:16.355Z,26.11
2022-12-17T12:57:23.611Z,26.35
2022-12-17T13:02:30.969Z,26.93
2022-12-17T13:07:38.025Z,26.57
2022-12-17T13:12:45.259Z,26.73
2022-12-17T13:17:52.435Z,26.19
2022-12-17T13:22:59.647Z,26.19
2022-12-17T13:28:06.912Z,25.88
2022-12-17T13:33:14.056Z,25.74
2022-12-17T13:38:21.288Z,25.61
2022-12-17T13:43:28.467Z,25.68
2022-12-17T13:48:36.079Z,25.85
2022-12-17T13:53:42.867Z,25.70
2022-12-17T13:58:51.242Z,25.79
2022-12-17T14:04:06.312Z,25.70
2022-12-17T14:09:04.562Z,25.60
2022-12-17T14:14:11.840Z,25.80
2022-12-17T14:19:18.994Z,25.76
2022-12-17T14:24:26.194Z,26.32
2022-12-17T14:29:33.437Z,27.11
2022-12-17T14:34:40.620Z,25.80
2022-12-17T14:39:47.827Z,25.47
2022-12-17T14:44:55.043Z,25.24
2022-12-17T14:50:02.331Z,25.07
2022-12-17T14:55:09.549Z,24.99
2022-12-17T15:00:16.818Z,24.91
2022-12-17T15:05:23.947Z,24.89
2022-12-17T15:10:31.172Z,24.82
2022-12-17T15:15:38.379Z,24.86
2022-12-17T15:20:45.554Z,24.76
2022-12-17T15:25:52.972Z,24.63
2022-12-17T15:31:00.421Z,24.59
2022-12-17T15:36:08.550Z,24.52
2022-12-17T15:41:16.007Z,24.46
2022-12-17T15:46:23.701Z,24.42
2022-12-17T15:51:31.232Z,24.37
2022-12-17T15:56:38.551Z,24.36
2022-12-17T16:01:45.880Z,24.35
2022-12-17T16:06:53.184Z,24.33
2022-12-17T16:12:00.766Z,24.32
2022-12-17T16:17:08.518Z,24.27
2022-12-17T16:22:15.936Z,24.26
2022-12-17T16:27:23.194Z,24.17
2022-12-17T16:32:36.142Z,24.19
2022-12-17T16:37:37.635Z,24.14
2022-12-17T16:42:44.806Z,24.08
2022-12-17T16:47:52.138Z,24.12
2022-12-17T16:52:59.530Z,24.05
2022-12-17T16:58:07.149Z,24.04
2022-12-17T17:03:15.027Z,24.00
2022-12-17T17:08:22.092Z,23.95
2022-12-17T17:13:29.266Z,23.91
2022-12-17T17:18:36.513Z,23.91
2022-12-17T17:23:43.775Z,23.89
2022-12-17T17:28:50.990Z,23.88
2022-12-17T17:33:58.236Z,23.85
2022-12-17T17:39:05.363Z,23.86
2022-12-17T17:44:12.601Z,23.83
2022-12-17T17:49:19.792Z,24.27
2022-12-17T17:54:27.033Z,24.54
2022-12-17T17:59:34.641Z,24.67
2022-12-17T18:04:41.484Z,25.42
2022-12-17T18:09:48.669Z,26.17
2022-12-17T18:15:14.879Z,26.72
2022-12-17T18:20:03.213Z,26.76
2022-12-17T18:25:10.353Z,26.81
2022-12-17T18:30:17.878Z,26.44
2022-12-17T18:35:25.110Z,25.96
2022-12-17T18:40:33.626Z,26.14
2022-12-17T18:45:39.677Z,25.98
2022-12-17T18:50:47.079Z,25.75
2022-12-17T18:55:54.312Z,25.73
2022-12-17T19:01:01.613Z,25.71
2022-12-17T19:06:09.261Z,25.70
2022-12-17T19:11:16.783Z,25.83
2022-12-17T19:16:24.033Z,25.85
2022-12-17T19:21:31.187Z,26.10
2022-12-17T19:26:38.647Z,26.39
2022-12-17T19:31:46.234Z,26.03
2022-12-17T19:36:53.404Z,25.86
2022-12-17T19:42:00.585Z,25.76
2022-12-17T19:47:07.857Z,25.68
2022-12-17T19:52:15.409Z,25.53
2022-12-17T19:57:23.005Z,25.75
2022-12-17T20:02:33.089Z,25.97
2022-12-17T20:07:37.847Z,26.04
2022-12-17T20:12:45.436Z,26.15
2022-12-17T20:17:52.951Z,26.19
2022-12-17T20:23:00.367Z,26.25
2022-12-17T20:28:07.548Z,26.09
2022-12-17T20:33:14.795Z,26.02
2022-12-17T20:38:22.014Z,25.75
2022-12-17T20:43:29.148Z,25.73
2022-12-17T20:48:36.792Z,25.61
2022-12-17T20:53:43.920Z,25.34
2022-12-17T20:58:51.302Z,25.55
2022-12-17T21:03:58.722Z,25.36
2022-12-17T21:09:06.456Z,24.73
2022-12-17T21:14:13.637Z,25.04
2022-12-17T21:19:20.841Z,25.63
2022-12-17T21:24:28.293Z,25.74
2022-12-17T21:29:35.581Z,25.78
2022-12-17T21:34:42.787Z,25.63
2022-12-17T21:39:51.943Z,25.41
2022-12-17T21:44:57.190Z,25.33
2022-12-17T21:50:04.483Z,25.38
2022-12-17T21:55:11.738Z,25.21
2022-12-17T22:00:18.896Z,25.22
2022-12-17T22:05:26.104Z,25.10
2022-12-17T22:10:44.290Z,24.98
2022-12-17T22:15:48.052Z,24.95
2022-12-17T22:20:47.943Z,25.01
2022-12-17T22:25:55.135Z,25.21
2022-12-17T22:31:02.363Z,25.33
2022-12-17T22:37:53.714Z,25.44
2022-12-17T22:44:35.587Z,25.45
2022-12-17T22:46:24.143Z,25.46
2022-12-17T22:51:31.895Z,25.47
2022-12-17T22:56:54.127Z,25.41
2022-12-17T23:01:45.774Z,25.21
2022-12-17T23:06:52.906Z,25.16
2022-12-17T23:12:00.102Z,25.04
2022-12-17T23:17:07.323Z,25.05
2022-12-17T23:22:18.916Z,24.91
2022-12-17T23:27:21.963Z,24.70
2022-12-17T23:32:29.192Z,24.57
2022-12-17T23:37:39.752Z,24.84
2022-12-17T23:42:43.635Z,24.65
2022-12-17T23:47:50.829Z,24.78
2022-12-17T23:52:58.013Z,24.73
2022-12-17T23:58:05.228Z,24.53
